This is the latest recevied weather packets stored in our database for station/object DL4MGC-10. If no packets are shown the sender has not sent any weather packets the latest 10 day(s).
| Time | Temp. | Humidity | Pressure | Rain* | Wind** | Luminosity | Snow |
|---|---|---|---|---|---|---|---|
| 1777419714 | 14.44° C | 50% | 1018.1 hPa | - | - | - | - |
| 1777418814 | 14.44° C | 49% | 1018.2 hPa | - | - | - | - |
| 1777417914 | 14.44° C | 49% | 1018.3 hPa | - | - | - | - |
| 1777417014 | 15° C | 48% | 1018.2 hPa | - | - | - | - |
| 1777416114 | 15° C | 47% | 1018.2 hPa | - | - | - | - |
| 1777415214 | 15.56° C | 47% | 1018.1 hPa | - | - | - | - |
| 1777414314 | 15.56° C | 46% | 1017.9 hPa | - | - | - | - |
| 1777413414 | 15.56° C | 46% | 1017.9 hPa | - | - | - | - |
| 1777412514 | 15.56° C | 47% | 1017.9 hPa | - | - | - | - |
| 1777411614 | 15.56° C | 47% | 1017.9 hPa | - | - | - | - |
| 1777410714 | 15.56° C | 47% | 1017.9 hPa | - | - | - | - |
| 1777409813 | 16.67° C | 45% | 1017.6 hPa | - | - | - | - |
| 1777408913 | 16.67° C | 45% | 1017.5 hPa | - | - | - | - |
| 1777408013 | 16.67° C | 45% | 1017.5 hPa | - | - | - | - |
| 1777407113 | 16.67° C | 45% | 1017.7 hPa | - | - | - | - |
| 1777406213 | 17.22° C | 46% | 1017.6 hPa | - | - | - | - |
| 1777405313 | 17.22° C | 45% | 1017.5 hPa | - | - | - | - |
| 1777404413 | 17.22° C | 44% | 1017.4 hPa | - | - | - | - |
| 1777403513 | 17.78° C | 43% | 1017.3 hPa | - | - | - | - |
| 1777402613 | 17.78° C | 43% | 1017.1 hPa | - | - | - | - |
| 1777401713 | 18.33° C | 43% | 1017 hPa | - | - | - | - |
| 1777400813 | 18.33° C | 43% | 1016.8 hPa | - | - | - | - |
| 1777399912 | 18.89° C | 42% | 1016.6 hPa | - | - | - | - |
| 1777399012 | 18.89° C | 41% | 1016.6 hPa | - | - | - | - |
| 1777398112 | 19.44° C | 41% | 1016.4 hPa | - | - | - | - |
* Rain since midnight (hover to see other rain measurements)
** Current wind speed in m/s (hover to see current wind gust speed)